Time;durP1;ratioP1;P1;durP2;ratioP2;P2;SDS_P1;SDS_P2;PMS_P1;PMS_P2;Temp;Humidity;BMP_temperature;BMP_pressure;BME280_temperature;BME280_humidity;BME280_pressure;Samples;Min_cycle;Max_cycle;Signal;HPM_P1;HPM_P2
2022/04/15 00:01:03;;;;;;;31.63;24.98;;;;;;;16.08;100.00;96718.94;5063378;28;20327;-47
2022/04/15 00:03:32;;;;;;;28.47;23.77;;;;;;;16.13;100.00;96715.75;5064870;28;20091;-50
2022/04/15 00:06:00;;;;;;;28.85;23.48;;;;;;;15.98;100.00;96718.31;5064034;28;20087;-51
2022/04/15 00:08:28;;;;;;;29.95;23.80;;;;;;;16.17;100.00;96693.09;5063208;28;20064;-52
2022/04/15 00:10:57;;;;;;;30.00;23.70;;;;;;;16.12;100.00;96695.47;5062269;28;20061;-54
2022/04/15 00:13:33;;;;;;;27.38;22.73;;;;;;;16.08;100.00;96700.31;5062186;28;20101;-54
2022/04/15 00:16:03;;;;;;;28.60;23.08;;;;;;;15.99;100.00;96706.66;5065474;28;20079;-55
2022/04/15 00:18:33;;;;;;;28.60;23.10;;;;;;;15.73;100.00;96714.91;5064460;28;20064;-50
2022/04/15 00:21:02;;;;;;;27.58;23.85;;;;;;;15.94;100.00;96717.00;5064057;28;20080;-51
2022/04/15 00:23:31;;;;;;;28.60;23.20;;;;;;;15.69;100.00;96720.72;5064258;28;20060;-56
2022/04/15 00:26:00;;;;;;;27.05;22.77;;;;;;;15.31;100.00;96720.41;5063741;28;20076;-52
2022/04/15 00:28:28;;;;;;;27.90;22.90;;;;;;;15.57;100.00;96713.06;5064985;28;20068;-55
2022/04/15 00:30:57;;;;;;;26.77;23.30;;;;;;;15.39;100.00;96721.25;5066231;28;20470;-54
2022/04/15 00:33:27;;;;;;;31.48;24.05;;;;;;;15.25;100.00;96724.59;5070104;28;20072;-49
2022/04/15 00:35:55;;;;;;;27.90;23.83;;;;;;;15.29;100.00;96727.75;5068467;28;20069;-50
2022/04/15 00:38:23;;;;;;;29.27;24.10;;;;;;;15.52;100.00;96717.22;5067014;28;20079;-57
2022/04/15 00:40:51;;;;;;;29.73;24.70;;;;;;;15.56;100.00;96716.75;5067661;28;20072;-56
2022/04/15 00:43:20;;;;;;;30.80;25.77;;;;;;;15.17;100.00;96714.81;5068643;28;20071;-53
2022/04/15 00:45:48;;;;;;;30.88;24.77;;;;;;;15.02;100.00;96713.78;5067051;28;20068;-55
2022/04/15 00:48:19;;;;;;;30.33;25.35;;;;;;;14.95;100.00;96723.44;5066135;28;20076;-53
2022/04/15 00:50:49;;;;;;;31.60;25.10;;;;;;;14.70;100.00;96727.88;5065729;28;20083;-52
2022/04/15 00:53:22;;;;;;;32.30;24.48;;;;;;;14.46;100.00;96729.47;5068271;28;20056;-51
2022/04/15 00:55:53;;;;;;;28.80;23.25;;;;;;;14.52;100.00;96737.78;5066776;28;20953;-51
2022/04/15 00:58:22;;;;;;;28.70;23.55;;;;;;;14.41;100.00;96754.81;5064848;28;20068;-50
2022/04/15 01:00:53;;;;;;;31.40;24.48;;;;;;;14.42;100.00;96759.97;5066315;28;20087;-55
2022/04/15 01:03:22;;;;;;;32.42;25.92;;;;;;;14.40;100.00;96759.28;5062888;28;20082;-52
2022/04/15 01:05:57;;;;;;;30.70;24.88;;;;;;;14.42;100.00;96762.63;5063278;28;20489;-52
2022/04/15 01:08:28;;;;;;;30.17;26.75;;;;;;;14.60;100.00;96762.53;5069034;28;20084;-51
2022/04/15 01:11:00;;;;;;;32.67;24.98;;;;;;;14.52;100.00;96766.97;5063767;28;20075;-52
2022/04/15 01:13:33;;;;;;;32.92;27.10;;;;;;;14.52;100.00;96762.53;5065670;28;20076;-49
2022/04/15 01:16:03;;;;;;;31.88;27.60;;;;;;;14.69;100.00;96758.91;5066718;28;20071;-48
2022/04/15 01:18:31;;;;;;;38.60;28.15;;;;;;;14.63;100.00;96758.75;5065565;28;20158;-49
2022/04/15 01:21:01;;;;;;;35.72;28.45;;;;;;;14.67;100.00;96760.06;5066699;28;20076;-53
2022/04/15 01:23:30;;;;;;;37.15;29.48;;;;;;;15.06;100.00;96720.44;5067138;28;20072;-49
2022/04/15 01:25:59;;;;;;;38.43;30.60;;;;;;;15.07;100.00;96724.78;5066577;28;20056;-47
2022/04/15 01:28:27;;;;;;;35.60;28.55;;;;;;;15.34;100.00;96730.72;5065860;28;20064;-50
2022/04/15 01:30:55;;;;;;;34.83;27.67;;;;;;;15.12;100.00;96732.22;5065430;28;20572;-47
2022/04/15 01:33:23;;;;;;;35.35;28.00;;;;;;;14.89;100.00;96735.53;5065088;28;20076;-48
2022/04/15 01:35:55;;;;;;;34.10;27.75;;;;;;;15.01;100.00;96732.56;5064400;28;20073;-46
2022/04/15 01:38:23;;;;;;;32.88;28.48;;;;;;;15.36;100.00;96734.88;5065507;28;20068;-54
2022/04/15 01:40:53;;;;;;;33.97;29.27;;;;;;;15.31;100.00;96731.03;5065282;28;20087;-49
2022/04/15 01:43:21;;;;;;;36.43;29.00;;;;;;;14.99;100.00;96735.38;5067244;28;20072;-53
2022/04/15 01:45:49;;;;;;;34.60;29.00;;;;;;;14.69;100.00;96743.00;5065640;28;20060;-51
2022/04/15 01:48:18;;;;;;;35.83;29.55;;;;;;;15.02;100.00;96742.19;5067026;28;20083;-51
2022/04/15 01:50:46;;;;;;;37.08;29.65;;;;;;;15.16;100.00;96741.53;5065880;28;20088;-51
2022/04/15 01:53:14;;;;;;;35.28;28.92;;;;;;;15.27;100.00;96746.50;5065220;28;20068;-47
2022/04/15 01:55:43;;;;;;;38.90;29.33;;;;;;;15.36;100.00;96756.13;5063097;28;20064;-49
2022/04/15 01:58:12;;;;;;;38.53;29.75;;;;;;;15.02;100.00;96760.78;5067157;28;20092;-50
2022/04/15 02:00:40;;;;;;;37.58;29.20;;;;;;;14.95;100.00;96764.09;5063208;28;20064;-49
2022/04/15 02:03:09;;;;;;;39.08;30.02;;;;;;;15.02;100.00;96753.63;5062634;28;20644;-56
2022/04/15 02:05:37;;;;;;;36.55;30.30;;;;;;;14.96;100.00;96760.44;5065690;28;20149;-53
2022/04/15 02:08:06;;;;;;;34.92;28.48;;;;;;;14.65;100.00;96770.00;5066357;28;20576;-46
2022/04/15 02:10:34;;;;;;;35.25;29.27;;;;;;;14.64;100.00;96766.53;5066434;28;20111;-53
2022/04/15 02:13:02;;;;;;;37.67;30.23;;;;;;;14.52;100.00;96766.97;5062924;28;20061;-46
2022/04/15 02:15:33;;;;;;;40.28;29.85;;;;;;;14.32;100.00;96769.88;5066054;28;20092;-49
2022/04/15 02:18:01;;;;;;;37.27;29.20;;;;;;;14.73;100.00;96759.41;5066429;28;20084;-55
2022/04/15 02:20:29;;;;;;;40.63;30.35;;;;;;;15.06;100.00;96762.94;5065857;28;20572;-52
2022/04/15 02:22:57;;;;;;;40.28;30.08;;;;;;;14.93;100.00;96771.41;5066051;28;20083;-51
2022/04/15 02:25:26;;;;;;;38.95;30.02;;;;;;;14.88;100.00;96775.53;5065826;28;20060;-58
2022/04/15 02:27:54;;;;;;;38.45;29.63;;;;;;;14.68;100.00;96777.66;5064591;28;20550;-51
2022/04/15 02:30:22;;;;;;;40.13;31.30;;;;;;;14.62;100.00;96773.81;5055740;28;20080;-52
2022/04/15 02:32:52;;;;;;;41.47;31.67;;;;;;;14.83;100.00;96767.22;5078188;28;20076;-47
2022/04/15 02:35:20;;;;;;;40.72;31.45;;;;;;;15.10;100.00;96774.06;5064460;28;20067;-53
2022/04/15 02:37:48;;;;;;;40.28;31.85;;;;;;;14.89;100.00;96779.84;5063687;28;20071;-52
2022/04/15 02:40:16;;;;;;;42.10;32.22;;;;;;;14.86;100.00;96775.69;5062295;28;20091;-54
2022/04/15 02:42:45;;;;;;;38.55;30.25;;;;;;;15.01;100.00;96785.69;5064902;28;20080;-52
2022/04/15 02:45:19;;;;;;;47.45;31.90;;;;;;;14.89;100.00;96785.97;5062378;28;20075;-54
2022/04/15 02:47:48;;;;;;;40.63;33.08;;;;;;;15.28;100.00;96784.50;5065401;28;20053;-53
2022/04/15 02:50:17;;;;;;;40.30;33.65;;;;;;;15.40;100.00;96776.06;5060834;28;20068;-51
2022/04/15 02:52:46;;;;;;;40.33;32.40;;;;;;;15.54;100.00;96782.53;5060848;28;20083;-49
2022/04/15 02:55:14;;;;;;;42.38;32.95;;;;;;;15.36;100.00;96785.38;5063073;28;20057;-49
2022/04/15 02:57:42;;;;;;;41.90;32.90;;;;;;;15.33;100.00;96785.69;5062740;28;20067;-51
2022/04/15 03:00:14;;;;;;;41.72;33.17;;;;;;;15.40;100.00;96789.34;5065242;28;20749;-51
2022/04/15 03:02:42;;;;;;;40.95;32.22;;;;;;;15.40;100.00;96780.53;5042394;28;20475;-55
2022/04/15 03:05:10;;;;;;;39.30;31.35;;;;;;;15.39;100.00;96782.38;5060041;28;20068;-51
2022/04/15 03:07:40;;;;;;;38.58;31.73;;;;;;;15.33;100.00;96785.69;5064060;28;20086;-53
2022/04/15 03:10:09;;;;;;;42.53;31.02;;;;;;;15.24;100.00;96794.66;5065076;28;20067;-52
2022/04/15 03:12:39;;;;;;;37.60;30.15;;;;;;;15.36;100.00;96788.03;5063880;28;20060;-51
2022/04/15 03:15:09;;;;;;;39.25;31.02;;;;;;;15.40;100.00;96789.34;5064496;28;20080;-50
2022/04/15 03:17:37;;;;;;;37.45;28.70;;;;;;;14.92;100.00;96790.13;5064885;28;20517;-59
2022/04/15 03:20:06;;;;;;;37.42;30.02;;;;;;;14.75;100.00;96797.25;5064424;28;20067;-49
2022/04/15 03:22:37;;;;;;;39.53;28.85;;;;;;;14.81;100.00;96790.47;5065014;28;20744;-48
2022/04/15 03:25:09;;;;;;;36.47;27.52;;;;;;;14.76;100.00;96796.22;5062500;28;20064;-49
2022/04/15 03:27:37;;;;;;;38.83;28.77;;;;;;;14.61;100.00;96805.84;5063569;28;20056;-48
2022/04/15 03:30:06;;;;;;;38.30;28.73;;;;;;;14.65;100.00;96812.47;5064987;28;20099;-50
2022/04/15 03:32:35;;;;;;;37.92;29.30;;;;;;;14.60;100.00;96806.84;5065237;28;20064;-51
2022/04/15 03:35:03;;;;;;;36.28;29.15;;;;;;;14.54;100.00;96797.69;5063086;28;20056;-49
2022/04/15 03:37:31;;;;;;;38.67;29.98;;;;;;;14.82;100.00;96789.47;5063269;28;20083;-56
2022/04/15 03:40:00;;;;;;;36.65;30.08;;;;;;;14.48;100.00;96791.16;5062810;28;20064;-53
2022/04/15 03:42:29;;;;;;;39.30;29.83;;;;;;;14.67;100.00;96798.06;5063341;28;20083;-57
2022/04/15 03:44:57;;;;;;;40.55;30.67;;;;;;;14.52;100.00;96793.53;5064939;28;20056;-53
2022/04/15 03:47:26;;;;;;;36.47;29.08;;;;;;;14.85;100.00;96786.47;5058715;28;20072;-54
2022/04/15 03:49:54;;;;;;;41.67;31.10;;;;;;;14.95;100.00;96788.00;5063799;28;20072;-48
2022/04/15 03:52:22;;;;;;;41.83;30.75;;;;;;;14.83;100.00;96789.31;5064851;28;20079;-53
2022/04/15 03:54:50;;;;;;;40.17;30.33;;;;;;;14.93;100.00;96787.34;5060330;28;20060;-51
2022/04/15 03:57:18;;;;;;;37.55;30.40;;;;;;;14.98;100.00;96791.31;5065257;28;20477;-50
2022/04/15 03:59:48;;;;;;;38.75;31.33;;;;;;;14.93;100.00;96792.66;5063727;28;20076;-53
2022/04/15 04:02:16;;;;;;;41.45;31.63;;;;;;;14.84;100.00;96788.31;5062960;28;20064;-52
2022/04/15 04:04:45;;;;;;;43.42;31.13;;;;;;;15.39;100.00;96786.88;5067479;28;20064;-50
2022/04/15 04:07:15;;;;;;;38.55;30.85;;;;;;;15.26;100.00;96781.22;5067076;28;20060;-52
2022/04/15 04:09:43;;;;;;;36.83;30.87;;;;;;;15.36;100.00;96782.72;5065591;28;20075;-57
2022/04/15 04:12:11;;;;;;;39.55;30.98;;;;;;;15.31;100.00;96797.47;5067528;28;20519;-50
2022/04/15 04:14:39;;;;;;;39.85;31.73;;;;;;;15.42;100.00;96800.66;5068650;28;20061;-50
2022/04/15 04:17:09;;;;;;;42.65;32.05;;;;;;;15.29;100.00;96796.81;5068335;28;20069;-54
2022/04/15 04:19:37;;;;;;;38.90;32.10;;;;;;;15.32;100.00;96802.63;5064517;28;20099;-55
2022/04/15 04:22:05;;;;;;;40.95;32.25;;;;;;;15.10;100.00;96797.97;5068183;28;20067;-48
2022/04/15 04:24:34;;;;;;;43.38;32.45;;;;;;;14.73;100.00;96812.53;5060955;28;20526;-49
2022/04/15 04:27:02;;;;;;;39.55;30.52;;;;;;;14.85;100.00;96810.38;5062183;28;20079;-47
2022/04/15 04:29:30;;;;;;;40.33;31.38;;;;;;;14.75;100.00;96817.66;5061581;28;20071;-55
2022/04/15 04:31:58;;;;;;;39.13;31.33;;;;;;;14.98;100.00;96805.44;5063479;28;20072;-53
2022/04/15 04:34:28;;;;;;;39.83;30.90;;;;;;;14.94;100.00;96812.06;5063337;28;20146;-52
2022/04/15 04:36:56;;;;;;;39.08;32.13;;;;;;;15.09;100.00;96821.03;5065083;28;20082;-54
2022/04/15 04:39:27;;;;;;;39.72;31.88;;;;;;;14.66;100.00;96822.13;5064246;28;20091;-48
2022/04/15 04:41:56;;;;;;;38.45;29.95;;;;;;;14.61;100.00;96835.03;5063803;28;20087;-51
2022/04/15 04:44:24;;;;;;;39.40;31.63;;;;;;;14.79;100.00;96827.78;5066395;28;20079;-54
2022/04/15 04:46:52;;;;;;;37.78;30.65;;;;;;;14.82;100.00;96831.94;5065261;28;20068;-52
2022/04/15 04:49:21;;;;;;;39.35;31.83;;;;;;;14.77;100.00;96831.59;5066547;28;20079;-57
2022/04/15 04:51:51;;;;;;;38.40;30.67;;;;;;;14.86;100.00;96838.59;5066879;28;20083;-49
2022/04/15 04:54:19;;;;;;;40.65;31.92;;;;;;;15.18;100.00;96848.47;5065661;28;20084;-50
2022/04/15 04:56:47;;;;;;;38.17;31.75;;;;;;;15.32;100.00;96844.31;5067354;28;20076;-50
2022/04/15 04:59:15;;;;;;;39.75;30.52;;;;;;;15.53;100.00;96839.34;5063738;28;20068;-54
2022/04/15 05:01:44;;;;;;;37.15;31.65;;;;;;;15.69;100.00;96833.25;5062256;28;20064;-55
2022/04/15 05:04:12;;;;;;;39.70;30.80;;;;;;;15.54;100.00;96848.16;5067941;28;20071;-51
2022/04/15 05:06:40;;;;;;;37.58;29.30;;;;;;;15.58;100.00;96846.81;5066622;28;20055;-57
2022/04/15 05:09:10;;;;;;;39.35;30.58;;;;;;;15.87;100.00;96841.03;5062271;28;20458;-57
2022/04/15 05:11:38;;;;;;;37.03;29.77;;;;;;;15.76;100.00;96849.31;5070264;28;20716;-54
2022/04/15 05:14:06;;;;;;;38.22;29.45;;;;;;;15.68;100.00;96847.50;5067171;28;20152;-48
2022/04/15 05:16:34;;;;;;;33.83;27.17;;;;;;;15.83;100.00;96851.19;5066798;28;20479;-56
2022/04/15 05:19:03;;;;;;;35.20;26.05;;;;;;;15.74;100.00;96857.50;5071301;28;20468;-53
2022/04/15 05:21:31;;;;;;;31.42;26.45;;;;;;;15.42;100.00;96855.63;5070943;28;20088;-56
2022/04/15 05:24:01;;;;;;;31.00;25.80;;;;;;;15.17;100.00;96868.03;5067188;28;20091;-55
2022/04/15 05:26:36;;;;;;;32.97;26.33;;;;;;;15.37;100.00;96866.72;5068224;28;20049;-56
2022/04/15 05:29:08;;;;;;;33.08;26.52;;;;;;;15.06;100.00;96871.84;5060767;28;20067;-58
2022/04/15 05:31:36;;;;;;;30.88;26.58;;;;;;;15.11;100.00;96874.84;5063917;28;20045;-56
2022/04/15 05:34:05;;;;;;;36.95;28.15;;;;;;;15.02;100.00;96877.63;5071319;28;20044;-55
2022/04/15 05:36:33;;;;;;;35.38;28.23;;;;;;;15.00;100.00;96874.31;5068286;28;20080;-57
2022/04/15 05:39:01;;;;;;;37.63;27.42;;;;;;;14.94;100.00;96873.97;5070920;28;20534;-52
2022/04/15 05:41:29;;;;;;;32.35;24.52;;;;;;;14.96;100.00;96879.09;5071168;28;20588;-57
2022/04/15 05:43:59;;;;;;;34.25;27.25;;;;;;;15.05;100.00;96880.81;5070186;28;20068;-50
2022/04/15 05:46:31;;;;;;;33.83;26.27;;;;;;;15.13;100.00;96883.47;5070108;28;20075;-52
2022/04/15 05:48:59;;;;;;;35.75;24.58;;;;;;;14.83;100.00;96874.28;5068404;28;20077;-54
2022/04/15 05:51:28;;;;;;;34.72;26.52;;;;;;;15.05;100.00;96894.09;5070769;28;20091;-56
2022/04/15 05:53:56;;;;;;;32.58;27.08;;;;;;;15.09;100.00;96883.97;5067467;28;20068;-60
2022/04/15 05:56:24;;;;;;;35.50;27.90;;;;;;;15.13;100.00;96890.59;5069456;28;20072;-55
2022/04/15 05:58:52;;;;;;;33.53;22.20;;;;;;;14.83;100.00;96887.56;5067819;28;20071;-59
2022/04/15 06:01:22;;;;;;;34.78;27.10;;;;;;;15.33;100.00;96897.31;5069779;28;20072;-58
2022/04/15 06:03:51;;;;;;;36.75;28.90;;;;;;;15.18;100.00;96901.59;5068356;28;20080;-57
2022/04/15 06:06:19;;;;;;;37.88;26.50;;;;;;;15.32;100.00;96902.78;5065821;28;20060;-54
2022/04/15 06:08:47;;;;;;;33.15;25.77;;;;;;;15.15;100.00;96894.78;5067154;28;20064;-57
2022/04/15 06:11:16;;;;;;;33.75;25.45;;;;;;;15.38;100.00;96904.78;5052133;28;20037;-55
2022/04/15 06:13:45;;;;;;;33.30;27.15;;;;;;;15.37;100.00;96903.94;5049640;28;20467;-55
2022/04/15 06:16:17;;;;;;;34.45;25.50;;;;;;;15.53;100.00;96902.31;5067239;28;20083;-54
2022/04/15 06:18:47;;;;;;;33.97;25.13;;;;;;;15.52;100.00;96912.13;5063260;28;20088;-58
2022/04/15 06:21:35;;;;;;;30.13;24.03;;;;;;;15.44;100.00;96917.41;5065384;28;20488;-55
2022/04/15 06:24:04;;;;;;;29.17;23.92;;;;;;;15.52;100.00;96914.78;5062038;28;20490;-54
2022/04/15 06:26:32;;;;;;;32.55;24.88;;;;;;;15.67;100.00;96909.66;5065506;28;20060;-54
2022/04/15 06:29:00;;;;;;;26.42;21.65;;;;;;;15.36;100.00;96920.88;5069061;28;20600;-53
2022/04/15 06:31:29;;;;;;;30.95;25.13;;;;;;;15.74;100.00;96908.00;5068332;28;20063;-54
2022/04/15 06:33:58;;;;;;;29.75;23.92;;;;;;;15.78;100.00;96913.81;5069907;28;20099;-53
2022/04/15 06:36:26;;;;;;;31.17;24.40;;;;;;;15.53;100.00;96918.28;5069660;28;20494;-52
2022/04/15 06:38:55;;;;;;;39.30;28.08;;;;;;;15.85;100.00;96912.16;5063255;28;20060;-55
2022/04/15 06:41:23;;;;;;;36.58;28.17;;;;;;;15.89;100.00;96913.47;5069529;28;20091;-59
2022/04/15 06:43:51;;;;;;;41.33;30.95;;;;;;;15.87;100.00;96913.66;5065641;28;20688;-54
2022/04/15 06:46:19;;;;;;;37.08;29.08;;;;;;;15.83;100.00;96916.84;5068235;28;20463;-52
2022/04/15 06:48:48;;;;;;;40.55;31.33;;;;;;;15.88;100.00;96914.50;5068837;28;20091;-54
2022/04/15 06:51:17;;;;;;;42.33;32.20;;;;;;;15.94;100.00;96916.50;5066230;28;20068;-55
2022/04/15 06:53:46;;;;;;;41.90;30.92;;;;;;;15.78;100.00;96919.13;5068376;28;20072;-56
2022/04/15 06:56:14;;;;;;;42.47;33.20;;;;;;;16.16;100.00;96914.13;5065115;28;20060;-51
2022/04/15 06:58:43;;;;;;;44.22;32.75;;;;;;;16.21;100.00;96919.78;5065689;28;20084;-52
2022/04/15 07:01:11;;;;;;;43.15;33.85;;;;;;;16.30;100.00;96922.25;5064449;28;20091;-59
2022/04/15 07:03:40;;;;;;;42.30;32.58;;;;;;;16.45;100.00;96925.06;5068470;28;20106;-58
2022/04/15 07:06:08;;;;;;;42.10;33.78;;;;;;;16.89;100.00;96915.81;5065474;28;20510;-58
2022/04/15 07:08:37;;;;;;;38.80;32.20;;;;;;;16.94;100.00;96926.78;5067536;28;20068;-59
2022/04/15 07:11:06;;;;;;;38.72;32.03;;;;;;;16.81;100.00;96932.66;5065211;28;20071;-50
2022/04/15 07:13:39;;;;;;;34.05;28.55;;;;;;;16.93;100.00;96928.63;5066049;28;20068;-57
2022/04/15 07:16:07;;;;;;;34.67;27.15;;;;;;;17.00;100.00;96932.25;5062110;28;20091;-51
2022/04/15 07:18:35;;;;;;;32.47;26.38;;;;;;;17.21;100.00;96923.66;5070253;28;20454;-58
2022/04/15 07:21:04;;;;;;;30.65;25.40;;;;;;;17.14;100.00;96930.69;5064473;28;20087;-57
2022/04/15 07:23:32;;;;;;;32.67;24.67;;;;;;;17.02;100.00;96930.22;5068027;28;20070;-49
2022/04/15 07:26:02;;;;;;;31.10;24.10;;;;;;;16.85;100.00;96928.63;5063646;28;20477;-48
2022/04/15 07:28:30;;;;;;;29.35;20.80;;;;;;;16.18;100.00;96930.78;5066932;28;20060;-53
2022/04/15 07:30:58;;;;;;;29.27;22.90;;;;;;;16.30;100.00;96932.91;5059137;28;20439;-53
2022/04/15 07:33:27;;;;;;;28.20;21.52;;;;;;;16.39;100.00;96931.06;5061855;28;20088;-51
2022/04/15 07:35:55;;;;;;;29.08;22.55;;;;;;;16.58;100.00;96932.50;5061902;28;20071;-55
2022/04/15 07:38:23;;;;;;;29.75;22.92;;;;;;;16.68;100.00;96927.00;5059705;28;21794;-60
2022/04/15 07:40:52;;;;;;;30.58;26.25;;;;;;;16.99;100.00;96924.41;5062202;28;20071;-55
2022/04/15 07:43:21;;;;;;;28.55;23.15;;;;;;;17.13;100.00;96926.34;5067693;28;20071;-55
2022/04/15 07:45:49;;;;;;;27.73;21.60;;;;;;;17.08;100.00;96926.88;5064774;28;20589;-50
2022/04/15 07:48:18;;;;;;;28.50;23.85;;;;;;;18.01;100.00;96920.63;5066865;28;20060;-53
2022/04/15 07:50:46;;;;;;;29.48;24.08;;;;;;;17.76;100.00;96924.50;5063402;28;20076;-52
2022/04/15 07:53:15;;;;;;;28.85;23.05;;;;;;;17.71;100.00;96932.16;5066685;28;20040;-57
2022/04/15 07:55:43;;;;;;;29.85;24.48;;;;;;;18.22;100.00;96935.94;5066461;28;20060;-54
2022/04/15 07:58:11;;;;;;;29.20;23.80;;;;;;;19.02;100.00;96938.97;5066400;28;20111;-54
2022/04/15 08:00:42;;;;;;;26.75;22.20;;;;;;;18.54;100.00;96933.16;5067298;28;20534;-53
2022/04/15 08:03:11;;;;;;;25.77;22.05;;;;;;;18.81;100.00;96929.88;5068376;28;20091;-53
2022/04/15 08:05:39;;;;;;;26.08;22.10;;;;;;;19.06;100.00;96929.56;5062979;28;20548;-55
2022/04/15 08:08:08;;;;;;;27.67;22.15;;;;;;;18.83;100.00;96935.03;5067755;28;20064;-55
2022/04/15 08:10:36;;;;;;;28.65;22.77;;;;;;;19.30;100.00;96931.09;5067803;28;20112;-57
2022/04/15 08:13:04;;;;;;;28.75;22.17;;;;;;;19.35;100.00;96932.19;5065109;28;20076;-56
2022/04/15 08:15:33;;;;;;;25.45;21.60;;;;;;;18.88;100.00;96932.63;5068637;28;20084;-51
2022/04/15 08:18:03;;;;;;;26.27;22.10;;;;;;;19.50;100.00;96932.16;5067853;28;20545;-49
2022/04/15 08:20:32;;;;;;;24.88;21.25;;;;;;;19.32;100.00;96926.41;5063408;28;20064;-53
2022/04/15 08:23:00;;;;;;;25.98;22.73;;;;;;;19.42;100.00;96935.78;5068167;28;20068;-53
2022/04/15 08:25:28;;;;;;;27.90;21.65;;;;;;;19.16;100.00;96938.94;5067408;28;20067;-51
2022/04/15 08:27:57;;;;;;;26.00;22.65;;;;;;;19.15;100.00;96939.16;5068358;28;20088;-57
2022/04/15 08:30:25;;;;;;;28.33;22.70;;;;;;;18.35;100.00;96934.50;5064769;28;21249;-54
2022/04/15 08:32:54;;;;;;;23.60;20.23;;;;;;;18.75;100.00;96941.28;5066375;28;20068;-53
2022/04/15 08:35:24;;;;;;;25.00;20.67;;;;;;;19.27;100.00;96944.84;5067651;28;20075;-49
2022/04/15 08:37:52;;;;;;;28.93;22.63;;;;;;;19.43;100.00;96947.31;5067268;28;20071;-50
2022/04/15 08:40:20;;;;;;;27.63;22.50;;;;;;;19.14;100.00;96946.34;5065834;28;20470;-56
2022/04/15 08:42:49;;;;;;;25.42;22.25;;;;;;;19.11;100.00;96943.22;5068197;28;20080;-56
2022/04/15 08:45:19;;;;;;;26.80;22.20;;;;;;;19.42;100.00;96943.81;5067717;28;20060;-53
2022/04/15 08:47:47;;;;;;;;;;;;;;;18.85;100.00;96947.19;5068144;28;20079;-56
2022/04/15 08:50:15;;;;;;;23.58;18.27;;;;;;;19.28;100.00;96950.00;5070241;28;19959;-54
2022/04/15 08:52:46;;;;;;;22.63;17.90;;;;;;;18.71;100.00;96950.66;5071278;28;20198;-55
2022/04/15 08:55:14;;;;;;;24.42;18.02;;;;;;;18.90;100.00;96952.81;5070656;28;20072;-56
2022/04/15 08:57:43;;;;;;;24.27;18.02;;;;;;;19.30;100.00;96947.97;5071448;28;20096;-54
2022/04/15 09:00:12;;;;;;;21.05;17.80;;;;;;;19.46;100.00;96954.94;5070635;28;20072;-57
2022/04/15 09:02:40;;;;;;;22.25;17.48;;;;;;;19.85;100.00;96943.84;5070923;28;20075;-56
2022/04/15 09:05:12;;;;;;;22.83;17.73;;;;;;;19.88;100.00;96939.97;5066445;28;20068;-57
2022/04/15 09:07:41;;;;;;;22.15;16.83;;;;;;;19.19;100.00;96948.44;5064688;28;20068;-51
2022/04/15 09:10:11;;;;;;;22.42;16.83;;;;;;;19.36;100.00;96952.56;5070315;28;20087;-55
2022/04/15 09:12:40;;;;;;;17.17;14.35;;;;;;;20.22;100.00;96941.94;5071249;28;20080;-57
2022/04/15 09:15:14;;;;;;;17.92;13.50;;;;;;;20.01;100.00;96940.09;5070538;28;20068;-54
2022/04/15 09:17:49;;;;;;;11.45;8.60;;;;;;;19.63;100.00;96951.06;5070701;28;20056;-58
2022/04/15 09:20:18;;;;;;;10.77;7.78;;;;;;;19.82;100.00;96951.44;5070416;28;20072;-55
2022/04/15 09:22:47;;;;;;;12.20;9.77;;;;;;;19.73;100.00;96945.41;5070575;28;20076;-53
2022/04/15 09:25:16;;;;;;;12.75;10.77;;;;;;;19.77;100.00;96948.53;5067873;28;20103;-56
2022/04/15 09:27:45;;;;;;;14.13;11.70;;;;;;;20.35;100.00;96938.53;5064882;28;20080;-53
2022/04/15 09:30:13;;;;;;;12.00;10.02;;;;;;;19.98;100.00;96943.16;5087800;28;20079;-53
2022/04/15 09:32:42;;;;;;;14.65;9.60;;;;;;;19.37;100.00;96950.72;5065697;28;20087;-54
2022/04/15 09:35:16;;;;;;;14.82;11.13;;;;;;;20.16;100.00;96934.66;5070058;28;20060;-54
2022/04/15 09:37:45;;;;;;;16.02;11.52;;;;;;;20.48;94.19;96937.81;5068556;28;20079;-50
2022/04/15 09:40:18;;;;;;;15.23;11.60;;;;;;;20.39;100.00;96931.78;5069962;28;20132;-54
2022/04/15 09:42:47;;;;;;;16.38;12.43;;;;;;;20.77;100.00;96934.94;5070211;28;20091;-56
2022/04/15 09:45:17;;;;;;;15.52;11.85;;;;;;;19.68;100.00;96940.63;5066855;28;20591;-60
2022/04/15 09:47:52;;;;;;;14.25;12.27;;;;;;;19.76;100.00;96936.19;5069956;28;20085;-55
2022/04/15 09:50:23;;;;;;;15.80;12.70;;;;;;;20.61;100.00;96935.25;5063965;28;20103;-54
2022/04/15 09:52:52;;;;;;;;;;;;;;;20.50;100.00;96936.63;5070627;28;20079;-53
2022/04/15 09:55:23;;;;;;;15.65;13.43;;;;;;;20.92;100.00;96925.94;5070409;28;19967;-49
2022/04/15 09:57:52;;;;;;;18.38;12.90;;;;;;;20.93;100.00;96933.81;5070660;28;20538;-48
2022/04/15 10:00:28;;;;;;;16.48;13.80;;;;;;;20.69;100.00;96932.44;5068701;28;20589;-50
2022/04/15 10:02:56;;;;;;;16.80;13.27;;;;;;;20.48;100.00;96935.16;5069537;28;20072;-56
2022/04/15 10:05:25;;;;;;;14.88;13.27;;;;;;;21.14;100.00;96930.19;5068428;28;20088;-54
2022/04/15 10:07:53;;;;;;;15.82;12.45;;;;;;;21.01;100.00;96935.47;5066539;28;20079;-57
2022/04/15 10:10:23;;;;;;;14.20;12.48;;;;;;;20.85;100.00;96931.25;5069246;28;20068;-55
2022/04/15 10:12:52;;;;;;;14.65;12.90;;;;;;;20.38;100.00;96928.25;5070007;28;20087;-52
2022/04/15 10:15:20;;;;;;;13.57;11.38;;;;;;;20.12;100.00;96939.59;5065161;28;20073;-48
2022/04/15 10:17:50;;;;;;;14.60;11.60;;;;;;;20.54;87.96;96929.88;5066686;28;20041;-56
2022/04/15 10:20:18;;;;;;;16.20;12.95;;;;;;;20.92;96.10;96928.63;5068898;28;20087;-52
2022/04/15 10:22:47;;;;;;;16.52;13.93;;;;;;;20.91;100.00;96933.16;5069345;28;20652;-54
2022/04/15 10:25:15;;;;;;;16.30;11.30;;;;;;;20.62;99.01;96928.88;5063322;28;20083;-57
2022/04/15 10:27:45;;;;;;;15.88;10.88;;;;;;;20.19;100.00;96920.91;5069423;28;20515;-51
2022/04/15 10:30:18;;;;;;;16.33;13.25;;;;;;;20.34;100.00;96920.81;5068658;28;20072;-51
2022/04/15 10:32:49;;;;;;;16.08;13.68;;;;;;;21.68;95.08;96915.94;5068577;28;20098;-56
2022/04/15 10:35:21;;;;;;;;;;;;;;;21.66;85.21;96915.31;5069192;28;20079;-56
2022/04/15 10:37:55;;;;;;;15.88;12.82;;;;;;;21.85;76.41;96912.84;5067562;28;19954;-55
2022/04/15 10:40:25;;;;;;;15.88;13.38;;;;;;;21.29;87.84;96912.06;5067643;28;20086;-57
2022/04/15 10:42:55;;;;;;;15.95;11.63;;;;;;;21.35;100.00;96901.63;5068994;28;20051;-55
2022/04/15 10:45:27;;;;;;;11.07;7.57;;;;;;;20.47;97.66;96912.03;5069250;28;20443;-57
2022/04/15 10:47:58;;;;;;;14.07;11.20;;;;;;;21.51;84.91;96907.44;5068776;28;20541;-58
2022/04/15 10:50:31;;;;;;;14.57;10.25;;;;;;;20.81;88.65;96904.03;5068229;28;20076;-54
2022/04/15 10:53:19;;;;;;;18.10;11.90;;;;;;;21.95;78.80;96897.19;5068594;28;20110;-52
2022/04/15 10:55:52;;;;;;;13.65;11.07;;;;;;;21.61;88.31;96903.53;5067996;28;20072;-51
2022/04/15 10:58:22;;;;;;;9.98;8.68;;;;;;;21.63;88.93;96902.28;5069212;28;20099;-53
2022/04/15 11:01:17;;;;;;;10.40;8.85;;;;;;;20.78;95.63;96900.91;5068797;28;20412;-51
2022/04/15 11:03:53;;;;;;;10.15;8.07;;;;;;;20.71;100.00;96908.91;5048262;28;21429;-54
2022/04/15 11:06:26;;;;;;;11.57;9.68;;;;;;;20.75;96.69;96906.66;5083935;28;20101;-54
2022/04/15 11:09:14;;;;;;;11.15;7.95;;;;;;;20.09;91.32;96913.19;5067248;28;20075;-58
2022/04/15 11:11:45;;;;;;;10.13;7.97;;;;;;;20.42;100.00;96906.44;5067854;28;20392;-54
2022/04/15 11:14:17;;;;;;;11.75;8.40;;;;;;;20.15;100.00;96908.91;5068555;28;20067;-51
2022/04/15 11:16:47;;;;;;;12.20;10.50;;;;;;;20.59;100.00;96891.75;5068449;28;20095;-56
2022/04/15 11:19:23;;;;;;;11.75;10.55;;;;;;;21.43;93.74;96894.19;5062658;28;20589;-50
2022/04/15 11:21:53;;;;;;;11.80;8.63;;;;;;;21.24;79.93;96898.47;5060656;28;20091;-56